Time;durP1;ratioP1;P1;durP2;ratioP2;P2;SDS_P1;SDS_P2;PMS_P1;PMS_P2;Temp;Humidity;BMP_temperature;BMP_pressure;BME280_temperature;BME280_humidity;BME280_pressure;Samples;Min_cycle;Max_cycle;Signal;HPM_P1;HPM_P2
2022/06/29 00:02:12;;;;;;;8.38;2.72;;;;;;;;;;10330253;28;20225;-47
2022/06/29 00:07:12;;;;;;;10.52;3.35;;;;;;;;;;10323687;28;20030;-47
2022/06/29 00:12:13;;;;;;;11.30;3.03;;;;;;;;;;10332369;28;20022;-56
2022/06/29 00:17:14;;;;;;;12.57;2.97;;;;;;;;;;10328330;28;20513;-46
2022/06/29 00:22:15;;;;;;;6.05;2.50;;;;;;;;;;10328508;28;20374;-57
2022/06/29 00:27:16;;;;;;;8.45;3.58;;;;;;;;;;10327916;28;20266;-45
2022/06/29 00:32:17;;;;;;;11.95;2.92;;;;;;;;;;10317992;28;20030;-50
2022/06/29 00:37:18;;;;;;;8.48;2.85;;;;;;;;;;10328363;28;20038;-48
2022/06/29 00:42:18;;;;;;;7.85;2.60;;;;;;;;;;10327646;28;20492;-47
2022/06/29 00:47:19;;;;;;;8.48;2.45;;;;;;;;;;10327224;28;20102;-47
2022/06/29 00:52:25;;;;;;;7.03;2.40;;;;;;;;;;10327765;28;20037;-46
2022/06/29 00:57:28;;;;;;;10.45;2.80;;;;;;;;;;10327428;28;20030;-47
2022/06/29 01:02:33;;;;;;;9.43;2.75;;;;;;;;;;10327491;28;20026;-47
2022/06/29 01:07:34;;;;;;;6.30;2.45;;;;;;;;;;10329042;28;20034;-45
2022/06/29 01:12:35;;;;;;;6.03;2.53;;;;;;;;;;10327770;28;20022;-46
2022/06/29 01:17:36;;;;;;;5.68;2.30;;;;;;;;;;10325842;28;20438;-46
2022/06/29 01:22:37;;;;;;;5.63;2.75;;;;;;;;;;10323247;28;20026;-46
2022/06/29 01:27:38;;;;;;;7.80;2.55;;;;;;;;;;10327359;28;20054;-46
2022/06/29 01:32:39;;;;;;;6.90;2.63;;;;;;;;;;10316048;28;20031;-46
2022/06/29 01:37:41;;;;;;;5.88;2.40;;;;;;;;;;10325730;28;20073;-46
2022/06/29 01:42:41;;;;;;;5.32;2.13;;;;;;;;;;10325660;28;20250;-46
2022/06/29 01:47:42;;;;;;;5.10;2.55;;;;;;;;;;10330225;28;20240;-46
2022/06/29 01:52:42;;;;;;;4.05;2.10;;;;;;;;;;10332523;28;20394;-45
2022/06/29 01:57:43;;;;;;;5.13;2.15;;;;;;;;;;10325165;28;20197;-45
2022/06/29 02:02:44;;;;;;;6.32;2.22;;;;;;;;;;10325157;28;20029;-45
2022/06/29 02:07:44;;;;;;;5.10;2.20;;;;;;;;;;10325529;28;20031;-45
2022/06/29 02:12:45;;;;;;;7.63;2.47;;;;;;;;;;10325323;28;20026;-45
2022/06/29 02:17:45;;;;;;;4.13;2.00;;;;;;;;;;10325364;28;20038;-45
2022/06/29 02:22:46;;;;;;;7.80;2.78;;;;;;;;;;10339329;28;20177;-47
2022/06/29 02:27:47;;;;;;;5.97;2.30;;;;;;;;;;10316872;28;20143;-46
2022/06/29 02:38:07;;;;;;;5.72;2.45;;;;;;;;;;10344229;28;20393;-46
2022/06/29 02:43:08;;;;;;;6.20;2.38;;;;;;;;;;10353792;28;20026;-46
2022/06/29 02:48:08;;;;;;;14.50;2.25;;;;;;;;;;10353592;28;20232;-46
2022/06/29 02:53:09;;;;;;;6.05;2.50;;;;;;;;;;10351055;28;20209;-46
2022/06/29 02:58:10;;;;;;;6.25;2.28;;;;;;;;;;10350560;28;20406;-45
2022/06/29 03:03:11;;;;;;;5.40;2.17;;;;;;;;;;10338341;28;20106;-45
2022/06/29 03:08:12;;;;;;;3.97;2.28;;;;;;;;;;10342935;28;20050;-47
2022/06/29 03:13:12;;;;;;;6.10;2.05;;;;;;;;;;10357135;28;20022;-47
2022/06/29 03:18:13;;;;;;;7.88;2.50;;;;;;;;;;10363212;28;20026;-50
2022/06/29 03:23:13;;;;;;;3.67;1.92;;;;;;;;;;10329706;28;20014;-46
2022/06/29 03:28:14;;;;;;;5.45;2.40;;;;;;;;;;10355717;28;20058;-45
2022/06/29 03:33:15;;;;;;;4.03;1.88;;;;;;;;;;10362724;28;20449;-45
2022/06/29 03:38:15;;;;;;;5.70;2.20;;;;;;;;;;10349491;28;20037;-45
2022/06/29 03:43:16;;;;;;;3.15;1.80;;;;;;;;;;10363755;28;20022;-45
2022/06/29 03:48:17;;;;;;;5.45;1.80;;;;;;;;;;10365269;28;20037;-45
2022/06/29 03:53:17;;;;;;;3.90;1.83;;;;;;;;;;10366922;28;20499;-45
2022/06/29 03:58:18;;;;;;;4.45;2.05;;;;;;;;;;10363356;28;20029;-45
2022/06/29 04:03:18;;;;;;;7.90;1.70;;;;;;;;;;10366675;28;20397;-47
2022/06/29 04:08:19;;;;;;;5.40;1.73;;;;;;;;;;10364478;28;20030;-46
2022/06/29 04:13:22;;;;;;;6.43;2.10;;;;;;;;;;10365054;28;20049;-45
2022/06/29 04:18:23;;;;;;;7.40;2.08;;;;;;;;;;10364572;28;20033;-46
2022/06/29 04:23:23;;;;;;;6.35;1.95;;;;;;;;;;10366418;28;20470;-46
2022/06/29 04:28:24;;;;;;;7.88;2.33;;;;;;;;;;10345540;28;20490;-45
2022/06/29 04:33:25;;;;;;;10.20;2.40;;;;;;;;;;10326220;28;20171;-46
2022/06/29 04:38:26;;;;;;;4.32;1.92;;;;;;;;;;10344619;28;20172;-46
2022/06/29 04:43:27;;;;;;;13.13;2.10;;;;;;;;;;10358597;28;20030;-46
2022/06/29 04:48:27;;;;;;;7.57;2.20;;;;;;;;;;10358348;28;20061;-46
2022/06/29 04:53:28;;;;;;;5.03;1.90;;;;;;;;;;10348206;28;20053;-46
2022/06/29 04:58:29;;;;;;;10.20;1.95;;;;;;;;;;10352232;28;20030;-46
2022/06/29 05:03:29;;;;;;;6.78;2.25;;;;;;;;;;10342724;28;20026;-46
2022/06/29 05:08:30;;;;;;;11.40;1.90;;;;;;;;;;10352062;28;20022;-45
2022/06/29 05:13:31;;;;;;;8.30;2.42;;;;;;;;;;10351110;28;20062;-46
2022/06/29 05:18:33;;;;;;;4.82;2.45;;;;;;;;;;10350139;28;20084;-48
2022/06/29 05:23:36;;;;;;;8.82;3.03;;;;;;;;;;10185178;23;4316765;-56
2022/06/29 05:28:38;;;;;;;8.82;2.58;;;;;;;;;;10294858;28;20027;-57
2022/06/29 05:33:40;;;;;;;12.88;4.13;;;;;;;;;;10294680;28;20049;-57
2022/06/29 05:38:42;;;;;;;10.68;3.15;;;;;;;;;;10294006;28;20108;-58
2022/06/29 05:43:49;;;;;;;12.80;3.45;;;;;;;;;;10293865;28;20374;-57
2022/06/29 05:48:51;;;;;;;11.13;2.80;;;;;;;;;;10294487;28;20035;-58
2022/06/29 05:53:52;;;;;;;13.30;3.65;;;;;;;;;;10294785;28;20027;-58
2022/06/29 05:58:54;;;;;;;14.60;3.30;;;;;;;;;;10295230;28;20034;-58
2022/06/29 06:03:56;;;;;;;13.20;3.30;;;;;;;;;;10293370;28;20114;-58
2022/06/29 06:08:58;;;;;;;14.10;3.40;;;;;;;;;;10293382;28;20109;-58
2022/06/29 06:13:59;;;;;;;13.57;4.03;;;;;;;;;;10298336;28;20034;-58
2022/06/29 06:19:01;;;;;;;14.68;3.00;;;;;;;;;;10301383;28;20133;-56
2022/06/29 06:24:03;;;;;;;7.38;3.05;;;;;;;;;;10300892;28;20042;-58
2022/06/29 06:29:04;;;;;;;11.23;3.70;;;;;;;;;;10301584;28;20038;-56
2022/06/29 06:34:06;;;;;;;13.82;4.43;;;;;;;;;;10300718;28;20133;-57
2022/06/29 06:39:08;;;;;;;12.55;3.40;;;;;;;;;;10300510;28;20034;-56
2022/06/29 06:44:11;;;;;;;10.95;3.45;;;;;;;;;;10300715;28;20027;-57
2022/06/29 06:49:13;;;;;;;11.88;3.92;;;;;;;;;;10300245;28;20142;-56
2022/06/29 06:54:14;;;;;;;15.15;4.45;;;;;;;;;;10300527;28;20030;-56
2022/06/29 06:59:16;;;;;;;11.93;3.55;;;;;;;;;;10299735;28;20479;-56
2022/06/29 07:04:17;;;;;;;14.32;3.95;;;;;;;;;;10299600;28;20033;-56
2022/06/29 07:09:19;;;;;;;14.32;4.13;;;;;;;;;;10299491;28;20019;-56
2022/06/29 07:14:20;;;;;;;23.55;4.72;;;;;;;;;;10299386;28;20090;-56
2022/06/29 07:19:22;;;;;;;31.95;4.75;;;;;;;;;;10298901;28;20034;-56
2022/06/29 07:24:24;;;;;;;20.20;5.07;;;;;;;;;;10298718;28;20042;-56
2022/06/29 07:29:25;;;;;;;18.55;4.40;;;;;;;;;;10298788;28;20038;-56
2022/06/29 07:34:27;;;;;;;22.45;5.03;;;;;;;;;;10298516;28;20414;-55
2022/06/29 07:39:30;;;;;;;16.48;3.88;;;;;;;;;;10298778;28;20463;-56
2022/06/29 07:44:31;;;;;;;20.05;5.13;;;;;;;;;;10298101;28;20066;-56
2022/06/29 07:49:33;;;;;;;20.77;5.88;;;;;;;;;;10297998;28;20045;-55
2022/06/29 07:54:35;;;;;;;18.55;4.75;;;;;;;;;;10297584;28;20110;-58
2022/06/29 07:59:37;;;;;;;16.10;4.32;;;;;;;;;;10297563;28;20089;-56
2022/06/29 08:04:38;;;;;;;18.42;5.55;;;;;;;;;;10298951;28;20033;-57
2022/06/29 08:09:39;;;;;;;18.60;5.20;;;;;;;;;;10297208;28;20538;-57
2022/06/29 08:14:41;;;;;;;22.08;4.78;;;;;;;;;;10296967;28;20062;-57
2022/06/29 08:19:44;;;;;;;18.35;4.57;;;;;;;;;;10296937;28;20037;-57
2022/06/29 08:24:45;;;;;;;25.25;4.70;;;;;;;;;;10296426;28;20051;-57
2022/06/29 08:29:48;;;;;;;13.98;4.72;;;;;;;;;;10311571;28;20035;-56
2022/06/29 08:34:49;;;;;;;25.13;5.20;;;;;;;;;;10295380;28;20027;-56
2022/06/29 08:39:51;;;;;;;22.15;5.22;;;;;;;;;;10296680;28;20155;-57
2022/06/29 08:44:53;;;;;;;23.98;5.55;;;;;;;;;;10295735;28;20170;-56
2022/06/29 08:49:56;;;;;;;19.85;5.25;;;;;;;;;;10295754;28;20018;-57
2022/06/29 08:54:58;;;;;;;17.20;5.05;;;;;;;;;;10295694;28;20043;-57
2022/06/29 09:00:00;;;;;;;15.93;4.88;;;;;;;;;;10295327;28;20029;-57
2022/06/29 09:05:03;;;;;;;13.65;4.50;;;;;;;;;;10294510;28;20019;-57
2022/06/29 09:10:12;;;;;;;38.85;5.95;;;;;;;;;;10295365;28;20191;-57
2022/06/29 09:15:13;;;;;;;20.92;4.65;;;;;;;;;;10294594;28;20034;-57
2022/06/29 09:20:15;;;;;;;16.83;4.80;;;;;;;;;;10294579;28;20034;-57
2022/06/29 09:25:25;;;;;;;13.30;4.28;;;;;;;;;;10294287;28;20054;-57
2022/06/29 09:30:38;;;;;;;12.90;4.30;;;;;;;;;;10294390;28;20497;-57
2022/06/29 09:35:42;;;;;;;13.93;4.80;;;;;;;;;;10293995;28;20045;-55
2022/06/29 09:41:12;;;;;;;16.15;5.65;;;;;;;;;;10293940;28;20053;-55
2022/06/29 09:46:16;;;;;;;22.27;5.78;;;;;;;;;;10294522;28;20031;-56
2022/06/29 09:51:31;;;;;;;13.40;5.68;;;;;;;;;;10293741;28;20027;-56
2022/06/29 09:56:34;;;;;;;16.15;5.90;;;;;;;;;;10292665;28;20031;-56
2022/06/29 10:06:57;;;;;;;18.70;6.68;;;;;;;;;;10294064;28;20030;-56
2022/06/29 10:17:44;;;;;;;18.98;6.18;;;;;;;;;;10294029;28;20090;-56
2022/06/29 10:22:46;;;;;;;15.02;6.00;;;;;;;;;;10294179;28;20118;-56
2022/06/29 10:28:20;;;;;;;15.95;5.63;;;;;;;;;;10292929;28;20135;-56
2022/06/29 10:33:37;;;;;;;12.55;5.90;;;;;;;;;;10293620;28;20034;-56
2022/06/29 10:39:09;;;;;;;16.70;5.95;;;;;;;;;;10292899;28;20463;-56
2022/06/29 10:44:11;;;;;;;13.93;5.97;;;;;;;;;;10292769;28;20038;-56
2022/06/29 10:49:23;;;;;;;18.75;6.55;;;;;;;;;;10292732;28;20031;-56
2022/06/29 10:54:30;;;;;;;13.40;5.88;;;;;;;;;;10292936;28;20057;-56
2022/06/29 10:59:39;;;;;;;14.20;6.20;;;;;;;;;;10295750;28;20094;-54
2022/06/29 11:04:43;;;;;;;18.92;6.00;;;;;;;;;;10300078;28;20026;-54
2022/06/29 11:20:26;;;;;;;13.45;6.03;;;;;;;;;;10299295;28;20034;-54
2022/06/29 11:25:36;;;;;;;15.88;6.00;;;;;;;;;;10299343;28;20073;-55
2022/06/29 11:30:39;;;;;;;18.75;5.50;;;;;;;;;;10299495;28;20455;-55
2022/06/29 11:35:42;;;;;;;23.42;6.10;;;;;;;;;;10298903;28;20038;-55
2022/06/29 11:40:46;;;;;;;10.93;4.82;;;;;;;;;;10299060;28;20030;-54
2022/06/29 11:45:58;;;;;;;12.15;4.80;;;;;;;;;;10298106;28;20023;-54
2022/06/29 11:51:10;;;;;;;11.18;4.70;;;;;;;;;;10298697;28;20084;-53
2022/06/29 11:56:18;;;;;;;14.60;4.05;;;;;;;;;;10298313;28;20027;-55
2022/06/29 12:01:22;;;;;;;;;;;;;;;;;;10298706;28;20081;-54
2022/06/29 12:06:27;;;;;;;10.98;4.18;;;;;;;;;;10297370;28;19914;-54
2022/06/29 12:11:29;;;;;;;9.23;3.80;;;;;;;;;;10297820;28;20019;-54
2022/06/29 12:16:31;;;;;;;11.57;4.07;;;;;;;;;;10297058;28;20030;-55
2022/06/29 12:21:32;;;;;;;9.27;4.22;;;;;;;;;;10297238;28;20098;-54
2022/06/29 12:26:35;;;;;;;11.73;3.55;;;;;;;;;;10296340;28;20043;-55
2022/06/29 12:31:38;;;;;;;9.55;3.78;;;;;;;;;;10296607;28;20031;-54
2022/06/29 12:36:41;;;;;;;12.00;3.75;;;;;;;;;;10294718;28;20034;-54
2022/06/29 12:41:42;;;;;;;15.25;4.07;;;;;;;;;;10296597;28;20034;-54
2022/06/29 12:46:44;;;;;;;9.60;3.90;;;;;;;;;;10295887;28;20058;-55
2022/06/29 12:51:46;;;;;;;11.57;4.10;;;;;;;;;;10295693;28;20034;-55
2022/06/29 12:56:48;;;;;;;13.20;3.90;;;;;;;;;;10295479;28;20170;-55
2022/06/29 13:01:53;;;;;;;14.52;3.55;;;;;;;;;;10295238;28;20035;-55
2022/06/29 13:06:54;;;;;;;10.75;3.95;;;;;;;;;;10295619;28;20050;-56
2022/06/29 13:11:56;;;;;;;13.07;3.97;;;;;;;;;;10295570;28;20039;-55
2022/06/29 13:16:57;;;;;;;19.00;3.95;;;;;;;;;;10294608;28;20056;-55
2022/06/29 13:22:00;;;;;;;9.80;4.03;;;;;;;;;;10294205;28;20031;-56
2022/06/29 13:27:02;;;;;;;10.93;3.83;;;;;;;;;;10294227;28;20071;-56
2022/06/29 13:32:06;;;;;;;9.73;3.67;;;;;;;;;;10294984;28;20033;-56
2022/06/29 13:37:08;;;;;;;10.90;3.40;;;;;;;;;;10292872;28;20042;-55
2022/06/29 13:42:09;;;;;;;11.35;3.70;;;;;;;;;;10294047;28;20034;-56
2022/06/29 13:47:11;;;;;;;10.40;3.42;;;;;;;;;;10293845;28;20035;-57
2022/06/29 13:52:12;;;;;;;9.18;3.58;;;;;;;;;;10293870;28;20059;-56
2022/06/29 13:57:15;;;;;;;11.63;3.78;;;;;;;;;;10293407;28;20039;-56
2022/06/29 14:02:17;;;;;;;9.65;3.05;;;;;;;;;;10294065;28;20097;-56
2022/06/29 14:07:18;;;;;;;10.23;3.53;;;;;;;;;;10294034;28;20121;-56
2022/06/29 14:12:20;;;;;;;6.63;3.25;;;;;;;;;;10294449;28;20068;-56
2022/06/29 14:17:22;;;;;;;11.90;3.60;;;;;;;;;;10294305;28;20459;-56
2022/06/29 14:22:23;;;;;;;7.85;3.38;;;;;;;;;;10293067;28;20493;-55
2022/06/29 14:27:25;;;;;;;10.38;3.35;;;;;;;;;;10291542;28;20057;-55
2022/06/29 14:32:27;;;;;;;10.25;3.42;;;;;;;;;;10293460;28;20023;-55
2022/06/29 14:37:29;;;;;;;7.20;3.33;;;;;;;;;;10301760;28;20101;-57
2022/06/29 14:42:30;;;;;;;5.80;2.97;;;;;;;;;;10301083;28;20475;-57
2022/06/29 14:47:32;;;;;;;7.50;3.20;;;;;;;;;;10300349;28;20038;-55
2022/06/29 14:52:36;;;;;;;5.35;2.97;;;;;;;;;;10300746;28;20474;-56
2022/06/29 14:57:37;;;;;;;7.78;3.20;;;;;;;;;;10300466;28;20030;-56
2022/06/29 15:02:46;;;;;;;8.25;3.47;;;;;;;;;;10299774;28;20366;-57
2022/06/29 15:07:48;;;;;;;6.45;3.30;;;;;;;;;;10300228;28;20361;-56
2022/06/29 15:12:49;;;;;;;7.38;3.58;;;;;;;;;;10299457;28;20031;-55
2022/06/29 15:17:52;;;;;;;10.82;3.10;;;;;;;;;;10299247;28;20031;-56
2022/06/29 15:22:53;;;;;;;6.28;3.05;;;;;;;;;;10299663;28;20121;-56
2022/06/29 15:27:55;;;;;;;9.82;2.90;;;;;;;;;;10298779;28;20051;-56
2022/06/29 15:32:56;;;;;;;11.27;3.28;;;;;;;;;;10299159;28;20027;-55
2022/06/29 15:43:15;;;;;;;6.85;2.90;;;;;;;;;;10298342;28;20043;-55
2022/06/29 15:48:17;;;;;;;6.35;3.05;;;;;;;;;;10298168;28;20027;-56
2022/06/29 15:58:38;;;;;;;9.38;3.45;;;;;;;;;;10297859;28;20474;-55
2022/06/29 16:03:40;;;;;;;9.90;3.63;;;;;;;;;;10298270;28;20061;-55
2022/06/29 16:08:41;;;;;;;9.88;3.78;;;;;;;;;;10297512;28;20035;-55
2022/06/29 16:13:42;;;;;;;9.43;3.53;;;;;;;;;;10299647;28;20035;-55
2022/06/29 16:18:43;;;;;;;11.68;3.50;;;;;;;;;;10302046;28;20034;-54
2022/06/29 16:23:43;;;;;;;10.43;3.83;;;;;;;;;;10317686;28;20042;-55
2022/06/29 16:28:44;;;;;;;10.43;4.78;;;;;;;;;;10294043;28;20034;-56
2022/06/29 16:33:44;;;;;;;9.50;3.40;;;;;;;;;;10318547;28;20100;-56
2022/06/29 16:38:46;;;;;;;8.18;4.00;;;;;;;;;;10324943;28;20030;-56
2022/06/29 16:43:47;;;;;;;8.98;4.28;;;;;;;;;;10324456;28;20085;-56
2022/06/29 16:48:47;;;;;;;11.30;4.28;;;;;;;;;;10302572;28;20031;-54
2022/06/29 16:53:48;;;;;;;10.15;3.85;;;;;;;;;;10309581;28;20031;-55
2022/06/29 16:58:48;;;;;;;9.82;4.57;;;;;;;;;;10319825;28;20038;-56
2022/06/29 17:03:49;;;;;;;8.38;4.15;;;;;;;;;;10317958;28;20473;-55
2022/06/29 17:08:50;;;;;;;16.38;4.15;;;;;;;;;;10310584;28;20035;-56
2022/06/29 17:13:51;;;;;;;13.15;4.72;;;;;;;;;;10314564;28;20027;-56
2022/06/29 17:18:53;;;;;;;9.75;4.20;;;;;;;;;;10306893;28;20065;-53
2022/06/29 17:23:54;;;;;;;10.73;3.97;;;;;;;;;;10309382;28;20043;-55
2022/06/29 17:28:55;;;;;;;15.82;4.90;;;;;;;;;;10300486;28;20038;-55
2022/06/29 17:33:56;;;;;;;11.93;4.65;;;;;;;;;;10313486;28;20030;-55
2022/06/29 17:38:57;;;;;;;11.55;4.75;;;;;;;;;;10312631;28;20486;-55
2022/06/29 17:43:57;;;;;;;11.55;4.45;;;;;;;;;;10313589;28;20061;-56
2022/06/29 17:49:00;;;;;;;11.25;4.18;;;;;;;;;;10307814;28;20026;-55
2022/06/29 17:54:00;;;;;;;13.23;4.38;;;;;;;;;;10300016;28;20054;-56
2022/06/29 17:59:03;;;;;;;10.00;4.47;;;;;;;;;;10291941;28;20129;-54
2022/06/29 18:04:04;;;;;;;9.23;4.35;;;;;;;;;;10304640;28;20049;-53
2022/06/29 18:09:04;;;;;;;11.57;4.07;;;;;;;;;;10313632;28;20035;-55
2022/06/29 18:14:05;;;;;;;8.25;4.30;;;;;;;;;;10316925;28;20034;-56
2022/06/29 18:19:06;;;;;;;15.50;4.22;;;;;;;;;;10300720;28;20175;-55
2022/06/29 18:24:08;;;;;;;9.30;3.63;;;;;;;;;;10303817;28;20138;-55
2022/06/29 18:29:08;;;;;;;10.82;4.10;;;;;;;;;;10309364;28;20500;-56
2022/06/29 18:34:09;;;;;;;8.38;3.72;;;;;;;;;;10301332;28;20030;-55
2022/06/29 18:39:09;;;;;;;11.15;3.80;;;;;;;;;;10311821;28;20037;-51
2022/06/29 18:44:10;;;;;;;16.95;4.45;;;;;;;;;;10311291;28;20087;-59
2022/06/29 18:49:11;;;;;;;18.00;4.85;;;;;;;;;;10318919;28;20366;-59
2022/06/29 18:54:12;;;;;;;12.90;4.53;;;;;;;;;;10325131;28;20025;-59
2022/06/29 18:59:12;;;;;;;9.85;3.88;;;;;;;;;;10314747;28;20034;-58
2022/06/29 19:04:13;;;;;;;11.20;4.13;;;;;;;;;;10319480;28;20589;-59
2022/06/29 19:09:17;;;;;;;8.10;4.15;;;;;;;;;;10329771;28;20492;-59
2022/06/29 19:14:18;;;;;;;16.98;4.85;;;;;;;;;;10317668;28;20026;-58
2022/06/29 19:19:19;;;;;;;14.48;4.45;;;;;;;;;;10316559;28;20057;-59
2022/06/29 19:24:20;;;;;;;11.63;4.30;;;;;;;;;;10321319;28;20078;-59
2022/06/29 19:29:21;;;;;;;12.23;4.13;;;;;;;;;;10309674;28;20143;-58
2022/06/29 19:34:21;;;;;;;13.40;4.80;;;;;;;;;;10304977;28;20161;-55
2022/06/29 19:39:22;;;;;;;10.48;4.40;;;;;;;;;;10298131;28;21562;-55
2022/06/29 19:44:23;;;;;;;12.20;4.57;;;;;;;;;;10306325;28;20029;-55
2022/06/29 19:49:23;;;;;;;18.33;4.97;;;;;;;;;;10314297;28;20104;-55
2022/06/29 19:54:24;;;;;;;15.48;4.63;;;;;;;;;;10325747;28;20031;-56
2022/06/29 19:59:26;;;;;;;11.80;4.10;;;;;;;;;;10311442;28;20030;-55
2022/06/29 20:04:26;;;;;;;12.45;4.15;;;;;;;;;;10317175;28;20022;-56
2022/06/29 20:09:32;;;;;;;12.43;4.20;;;;;;;;;;10299397;28;20026;-55
2022/06/29 20:14:33;;;;;;;16.42;4.20;;;;;;;;;;10329070;28;20101;-54
2022/06/29 20:19:33;;;;;;;9.65;4.18;;;;;;;;;;10314544;28;20027;-54
2022/06/29 20:24:34;;;;;;;13.32;4.15;;;;;;;;;;10308224;28;20486;-55
2022/06/29 20:29:34;;;;;;;11.35;4.10;;;;;;;;;;10311202;28;20031;-55
2022/06/29 20:34:35;;;;;;;7.55;4.07;;;;;;;;;;10325866;28;20417;-55
2022/06/29 20:39:36;;;;;;;10.95;3.67;;;;;;;;;;10320532;28;20108;-55
2022/06/29 20:49:55;;;;;;;7.63;3.50;;;;;;;;;;10320488;28;20038;-55
2022/06/29 20:54:56;;;;;;;11.90;3.97;;;;;;;;;;10318199;28;20338;-54
2022/06/29 20:59:57;;;;;;;6.57;3.63;;;;;;;;;;10322469;28;20025;-55
2022/06/29 21:04:57;;;;;;;12.82;4.15;;;;;;;;;;10322921;28;20034;-55
2022/06/29 21:09:59;;;;;;;8.52;3.72;;;;;;;;;;10316330;28;20170;-55
2022/06/29 21:15:00;;;;;;;8.35;3.60;;;;;;;;;;10318193;28;20026;-55
2022/06/29 21:20:01;;;;;;;7.47;3.72;;;;;;;;;;10304005;28;20481;-55
2022/06/29 21:25:01;;;;;;;9.95;3.67;;;;;;;;;;10297352;28;20077;-55
2022/06/29 21:30:02;;;;;;;6.53;3.30;;;;;;;;;;10304558;28;20457;-55
2022/06/29 21:35:04;;;;;;;8.73;3.47;;;;;;;;;;10305821;28;20164;-54
2022/06/29 21:40:05;;;;;;;9.25;3.63;;;;;;;;;;10312500;28;20045;-56
2022/06/29 21:45:06;;;;;;;13.20;3.70;;;;;;;;;;10310626;28;20529;-55
2022/06/29 21:55:28;;;;;;;7.45;3.45;;;;;;;;;;10314406;28;20034;-55
2022/06/29 22:00:31;;;;;;;7.43;3.55;;;;;;;;;;10316857;28;20027;-55
2022/06/29 22:05:31;;;;;;;8.02;3.42;;;;;;;;;;10308664;28;20065;-56
2022/06/29 22:10:32;;;;;;;6.78;3.70;;;;;;;;;;10308966;28;20377;-56
2022/06/29 22:15:33;;;;;;;9.00;3.33;;;;;;;;;;10307931;28;20038;-56
2022/06/29 22:20:33;;;;;;;4.63;3.22;;;;;;;;;;10299725;28;20030;-56
2022/06/29 22:25:34;;;;;;;10.90;3.70;;;;;;;;;;10309572;28;20125;-55
2022/06/29 22:30:35;;;;;;;4.88;2.92;;;;;;;;;;10302193;28;20034;-55
2022/06/29 22:35:36;;;;;;;6.15;3.13;;;;;;;;;;10302657;28;20046;-55
2022/06/29 22:40:36;;;;;;;7.72;3.33;;;;;;;;;;10295857;28;20030;-57
2022/06/29 22:45:37;;;;;;;11.75;3.30;;;;;;;;;;10303418;28;20038;-51
2022/06/29 22:50:37;;;;;;;6.03;3.50;;;;;;;;;;10302249;28;20038;-49
2022/06/29 22:55:38;;;;;;;14.60;3.47;;;;;;;;;;10341008;28;20053;-54
2022/06/29 23:00:39;;;;;;;9.73;3.22;;;;;;;;;;10298225;28;20141;-51
2022/06/29 23:05:39;;;;;;;7.63;3.35;;;;;;;;;;10316950;28;21345;-51
2022/06/29 23:15:59;;;;;;;4.97;3.15;;;;;;;;;;10328932;28;20069;-50
2022/06/29 23:21:00;;;;;;;7.82;3.05;;;;;;;;;;10329375;28;20474;-50
2022/06/29 23:26:01;;;;;;;7.15;3.00;;;;;;;;;;10329814;28;20530;-53
2022/06/29 23:31:01;;;;;;;9.15;3.22;;;;;;;;;;10319130;28;20038;-54
2022/06/29 23:36:02;;;;;;;6.88;2.97;;;;;;;;;;10315200;28;20453;-50
2022/06/29 23:41:03;;;;;;;5.75;2.78;;;;;;;;;;10296624;28;20058;-51
2022/06/29 23:46:04;;;;;;;5.78;2.88;;;;;;;;;;10332113;28;20022;-51
2022/06/29 23:51:04;;;;;;;11.20;3.25;;;;;;;;;;10315801;28;20026;-49
2022/06/29 23:56:05;;;;;;;6.70;2.75;;;;;;;;;;10302123;28;20343;-52
